Time;durP1;ratioP1;P1;durP2;ratioP2;P2;SDS_P1;SDS_P2;PMS_P1;PMS_P2;Temp;Humidity;BMP_temperature;BMP_pressure;BME280_temperature;BME280_humidity;BME280_pressure;Samples;Min_cycle;Max_cycle;Signal;HPM_P1;HPM_P2
2023/10/09 00:00:36;;;;;;;43.83;22.73;;;;;;;;;;5062270;28;20060;-58
2023/10/09 00:03:03;;;;;;;42.67;22.60;;;;;;;;;;5062033;28;20060;-60
2023/10/09 00:05:46;;;;;;;49.95;23.80;;;;;;;;;;5062918;28;20520;-60
2023/10/09 00:08:26;;;;;;;43.40;24.08;;;;;;;;;;5076494;28;20064;-59
2023/10/09 00:10:58;;;;;;;41.70;23.50;;;;;;;;;;5083527;28;20547;-60
2023/10/09 00:13:29;;;;;;;40.13;23.05;;;;;;;;;;5082599;28;20057;-59
2023/10/09 00:16:15;;;;;;;46.05;23.45;;;;;;;;;;5083200;28;20207;-60
2023/10/09 00:18:46;;;;;;;47.03;23.63;;;;;;;;;;5083170;28;20102;-59
2023/10/09 00:21:16;;;;;;;44.55;22.70;;;;;;;;;;5072881;28;20106;-59
2023/10/09 00:23:42;;;;;;;42.03;22.90;;;;;;;;;;5062719;28;20063;-59
2023/10/09 00:26:11;;;;;;;42.22;21.80;;;;;;;;;;5062612;28;20591;-59
2023/10/09 00:28:43;;;;;;;40.67;23.10;;;;;;;;;;5062218;28;20507;-59
2023/10/09 00:31:14;;;;;;;42.63;22.95;;;;;;;;;;5062514;28;20131;-60
2023/10/09 00:33:44;;;;;;;40.03;22.33;;;;;;;;;;5063288;28;20134;-60
2023/10/09 00:36:14;;;;;;;44.00;23.13;;;;;;;;;;5068186;28;20490;-59
2023/10/09 00:38:49;;;;;;;40.88;22.25;;;;;;;;;;5062570;28;20061;-60
2023/10/09 00:41:24;;;;;;;42.40;22.65;;;;;;;;;;5082833;28;20091;-60
2023/10/09 00:43:52;;;;;;;40.35;22.98;;;;;;;;;;5082596;28;20056;-60
2023/10/09 00:48:48;;;;;;;38.95;23.27;;;;;;;;;;5082895;28;20060;-60
2023/10/09 00:51:18;;;;;;;42.70;22.77;;;;;;;;;;5082946;28;20052;-60
2023/10/09 00:53:50;;;;;;;37.83;22.13;;;;;;;;;;5082043;28;20049;-60
2023/10/09 00:56:28;;;;;;;39.50;21.73;;;;;;;;;;5081706;28;20063;-60
2023/10/09 00:59:06;;;;;;;37.90;21.98;;;;;;;;;;5082071;28;20056;-59
2023/10/09 01:01:36;;;;;;;33.42;20.55;;;;;;;;;;5082451;28;20530;-59
2023/10/09 01:04:06;;;;;;;36.60;20.95;;;;;;;;;;5065882;28;20107;-59
2023/10/09 01:06:33;;;;;;;31.48;18.77;;;;;;;;;;5078693;28;20491;-59
2023/10/09 01:09:09;;;;;;;37.45;21.65;;;;;;;;;;5080039;28;20048;-60
2023/10/09 01:11:47;;;;;;;36.72;20.63;;;;;;;;;;5067367;28;20521;-60
2023/10/09 01:14:17;;;;;;;30.92;19.67;;;;;;;;;;5074286;28;20063;-60
2023/10/09 01:16:44;;;;;;;34.25;18.77;;;;;;;;;;5077796;28;20064;-59
2023/10/09 01:19:20;;;;;;;30.48;18.25;;;;;;;;;;5082845;28;20083;-60
2023/10/09 01:21:47;;;;;;;36.33;18.52;;;;;;;;;;5082401;28;20114;-60
2023/10/09 01:24:19;;;;;;;32.17;17.83;;;;;;;;;;5069665;28;20057;-60
2023/10/09 01:26:46;;;;;;;28.85;19.02;;;;;;;;;;5079801;28;20056;-59
2023/10/09 01:29:19;;;;;;;29.40;16.95;;;;;;;;;;5076916;28;20352;-59
2023/10/09 01:32:00;;;;;;;31.35;17.77;;;;;;;;;;5075936;28;20506;-60
2023/10/09 01:34:49;;;;;;;30.20;17.13;;;;;;;;;;5084941;28;20496;-59
2023/10/09 01:37:22;;;;;;;30.58;16.95;;;;;;;;;;5086284;28;20060;-59
2023/10/09 01:39:50;;;;;;;25.63;16.60;;;;;;;;;;5085436;28;20457;-59
2023/10/09 01:42:31;;;;;;;26.23;16.90;;;;;;;;;;5073169;28;20048;-60
2023/10/09 01:45:03;;;;;;;25.73;16.05;;;;;;;;;;5083723;28;20161;-60
2023/10/09 01:47:37;;;;;;;25.45;16.40;;;;;;;;;;5085476;28;20053;-60
2023/10/09 01:50:05;;;;;;;27.48;16.15;;;;;;;;;;5081894;28;20059;-59
2023/10/09 01:52:31;;;;;;;28.17;15.27;;;;;;;;;;5080493;28;20049;-60
2023/10/09 01:55:09;;;;;;;26.83;15.85;;;;;;;;;;5063474;28;20139;-60
2023/10/09 01:57:39;;;;;;;24.17;15.77;;;;;;;;;;5065142;28;20495;-60
2023/10/09 02:00:07;;;;;;;25.83;15.55;;;;;;;;;;5067911;28;20049;-60
2023/10/09 02:02:34;;;;;;;28.45;16.90;;;;;;;;;;5085277;28;20586;-60
2023/10/09 02:05:45;;;;;;;26.52;16.30;;;;;;;;;;5084916;28;20296;-60
2023/10/09 02:07:51;;;;;;;24.10;15.25;;;;;;;;;;5079112;28;20053;-60
2023/10/09 02:10:39;;;;;;;29.80;14.98;;;;;;;;;;5085129;28;20092;-60
2023/10/09 02:13:06;;;;;;;24.20;15.27;;;;;;;;;;5079969;28;20057;-60
2023/10/09 02:18:26;;;;;;;24.52;14.43;;;;;;;;;;5064543;28;20080;-61
2023/10/09 02:21:13;;;;;;;24.08;13.88;;;;;;;;;;5064759;28;20049;-60
2023/10/09 02:24:04;;;;;;;23.80;14.20;;;;;;;;;;5078121;28;20062;-60
2023/10/09 02:26:39;;;;;;;21.98;13.80;;;;;;;;;;5064946;28;20571;-60
2023/10/09 02:29:24;;;;;;;18.73;13.40;;;;;;;;;;5064240;28;20549;-60
2023/10/09 02:32:00;;;;;;;21.90;13.40;;;;;;;;;;5064366;28;20549;-60
2023/10/09 02:34:28;;;;;;;24.92;14.35;;;;;;;;;;5072931;28;20584;-60
2023/10/09 02:36:57;;;;;;;19.25;13.00;;;;;;;;;;5086848;28;20965;-60
2023/10/09 02:39:28;;;;;;;25.85;14.30;;;;;;;;;;5086311;28;20052;-60
2023/10/09 02:42:08;;;;;;;20.58;13.50;;;;;;;;;;5086997;28;20044;-60
2023/10/09 02:44:40;;;;;;;19.73;12.77;;;;;;;;;;5083807;28;20083;-60
2023/10/09 02:47:17;;;;;;;23.00;12.93;;;;;;;;;;5083543;28;20055;-60
2023/10/09 02:49:48;;;;;;;22.00;12.73;;;;;;;;;;5084863;28;20084;-60
2023/10/09 02:52:18;;;;;;;26.35;12.82;;;;;;;;;;5084062;28;20063;-60
2023/10/09 02:54:47;;;;;;;18.58;11.88;;;;;;;;;;5084136;28;20048;-60
2023/10/09 02:57:23;;;;;;;20.95;12.32;;;;;;;;;;5084618;28;20572;-60
2023/10/09 02:59:51;;;;;;;22.83;11.73;;;;;;;;;;5083370;28;20048;-60
2023/10/09 03:02:18;;;;;;;20.17;13.05;;;;;;;;;;5084492;28;20055;-59
2023/10/09 03:04:45;;;;;;;16.15;12.13;;;;;;;;;;5083758;28;20427;-60
2023/10/09 03:07:13;;;;;;;19.50;12.15;;;;;;;;;;5084196;28;20052;-60
2023/10/09 03:09:40;;;;;;;18.77;12.07;;;;;;;;;;5083998;28;20075;-60
2023/10/09 03:12:12;;;;;;;20.38;12.07;;;;;;;;;;5084427;28;20052;-59
2023/10/09 03:14:41;;;;;;;22.50;11.77;;;;;;;;;;5084218;28;20130;-60
2023/10/09 03:17:13;;;;;;;20.98;11.15;;;;;;;;;;5083458;28;20092;-60
2023/10/09 03:19:40;;;;;;;19.65;11.38;;;;;;;;;;5083839;28;20080;-60
2023/10/09 03:22:10;;;;;;;18.17;11.00;;;;;;;;;;5084165;28;20052;-60
2023/10/09 03:24:39;;;;;;;20.08;12.38;;;;;;;;;;5083529;28;20063;-59
2023/10/09 03:27:05;;;;;;;19.17;11.80;;;;;;;;;;5084112;28;20545;-60
2023/10/09 03:29:33;;;;;;;19.48;10.98;;;;;;;;;;5082165;28;20138;-60
2023/10/09 03:32:00;;;;;;;14.18;10.77;;;;;;;;;;5083911;28;20056;-61
2023/10/09 03:34:27;;;;;;;16.92;10.55;;;;;;;;;;5083439;28;20609;-60
2023/10/09 03:37:20;;;;;;;16.42;10.63;;;;;;;;;;5083681;28;20362;-60
2023/10/09 03:39:47;;;;;;;17.05;10.90;;;;;;;;;;5082611;28;20515;-60
2023/10/09 03:42:19;;;;;;;20.35;10.70;;;;;;;;;;5075912;28;20079;-60
2023/10/09 03:44:49;;;;;;;19.77;10.80;;;;;;;;;;5068340;28;20122;-60
2023/10/09 03:47:16;;;;;;;18.17;10.65;;;;;;;;;;5084118;28;20094;-61
2023/10/09 03:49:43;;;;;;;22.40;11.38;;;;;;;;;;5070246;28;20145;-59
2023/10/09 03:52:17;;;;;;;18.60;10.63;;;;;;;;;;5071977;28;20156;-60
2023/10/09 03:54:46;;;;;;;17.98;9.95;;;;;;;;;;5064591;28;20053;-60
2023/10/09 03:57:19;;;;;;;20.58;10.30;;;;;;;;;;5076823;28;20049;-60
2023/10/09 03:59:46;;;;;;;19.48;10.25;;;;;;;;;;5105710;27;20124;-60
2023/10/09 04:02:16;;;;;;;17.98;10.07;;;;;;;;;;5103780;27;20051;-60
2023/10/09 04:04:47;;;;;;;15.80;10.52;;;;;;;;;;5085571;28;20149;-61
2023/10/09 04:07:16;;;;;;;20.40;10.95;;;;;;;;;;5080311;28;20060;-60
2023/10/09 04:09:54;;;;;;;20.58;11.27;;;;;;;;;;5064685;28;20061;-61
2023/10/09 04:12:20;;;;;;;19.35;10.35;;;;;;;;;;5062849;28;20057;-60
2023/10/09 04:14:54;;;;;;;17.60;11.27;;;;;;;;;;5063997;28;20056;-60
2023/10/09 04:20:14;;;;;;;20.42;10.85;;;;;;;;;;5079982;28;20058;-60
2023/10/09 04:22:50;;;;;;;15.25;10.60;;;;;;;;;;5085421;28;20572;-60
2023/10/09 04:25:25;;;;;;;17.77;10.40;;;;;;;;;;5085543;28;20098;-61
2023/10/09 04:28:08;;;;;;;18.02;10.38;;;;;;;;;;5066065;28;20423;-61
2023/10/09 04:30:46;;;;;;;19.15;10.90;;;;;;;;;;5064871;28;20431;-60
2023/10/09 04:41:27;;;;;;;20.35;9.65;;;;;;;;;;5085696;28;20049;-60
2023/10/09 04:44:04;;;;;;;15.48;9.20;;;;;;;;;;5085617;28;20143;-60
2023/10/09 04:46:43;;;;;;;15.93;9.80;;;;;;;;;;5084218;28;20044;-60
2023/10/09 04:49:45;;;;;;;17.52;9.05;;;;;;;;;;5081094;28;20056;-60
2023/10/09 04:52:09;;;;;;;14.30;9.80;;;;;;;;;;5081975;28;20701;-61
2023/10/09 04:58:01;;;;;;;20.95;10.10;;;;;;;;;;5038821;28;20651;-63
2023/10/09 05:03:04;;;;;;;19.08;10.15;;;;;;;;;;5023809;28;20065;-60
2023/10/09 05:16:07;;;;;;;11.95;7.82;;;;;;;;;;5026790;28;20560;-60
2023/10/09 05:18:37;;;;;;;17.35;8.70;;;;;;;;;;5022249;28;20097;-60
2023/10/09 05:24:28;;;;;;;15.20;8.77;;;;;;;;;;5022488;28;20064;-60
2023/10/09 05:29:34;;;;;;;18.98;9.85;;;;;;;;;;5057996;28;20501;-60
2023/10/09 05:37:17;;;;;;;19.52;9.68;;;;;;;;;;5088549;28;20521;-60
2023/10/09 05:39:58;;;;;;;17.27;9.20;;;;;;;;;;5088310;28;20055;-60
2023/10/09 05:42:29;;;;;;;14.90;9.05;;;;;;;;;;5087765;28;20053;-59
2023/10/09 05:46:01;;;;;;;16.92;9.52;;;;;;;;;;5086441;28;20056;-59
2023/10/09 05:48:06;;;;;;;15.90;9.50;;;;;;;;;;5075821;28;20152;-60
2023/10/09 05:50:34;;;;;;;16.30;8.27;;;;;;;;;;5079696;28;20049;-57
2023/10/09 05:53:06;;;;;;;20.40;9.63;;;;;;;;;;5078374;28;20139;-60
2023/10/09 05:57:00;;;;;;;18.70;9.40;;;;;;;;;;5084927;28;20056;-60
2023/10/09 06:03:55;;;;;;;21.80;9.60;;;;;;;;;;5068748;28;20056;-59
2023/10/09 06:11:49;;;;;;;12.60;8.10;;;;;;;;;;5084285;28;20553;-60
2023/10/09 06:14:25;;;;;;;14.32;8.10;;;;;;;;;;5083933;28;20059;-60
2023/10/09 06:19:31;;;;;;;17.52;8.48;;;;;;;;;;5084255;28;20147;-59
2023/10/09 06:30:15;;;;;;;15.90;8.65;;;;;;;;;;5084100;28;20064;-56
2023/10/09 06:32:57;;;;;;;16.27;8.20;;;;;;;;;;5083409;28;20087;-60
2023/10/09 06:35:30;;;;;;;14.13;8.48;;;;;;;;;;5083782;28;20503;-60
2023/10/09 06:45:58;;;;;;;14.40;7.85;;;;;;;;;;5083559;28;20107;-60
2023/10/09 06:48:46;;;;;;;14.00;8.23;;;;;;;;;;5084117;28;20463;-60
2023/10/09 06:58:58;;;;;;;17.13;7.93;;;;;;;;;;5083119;28;20491;-60
2023/10/09 07:01:39;;;;;;;16.13;8.52;;;;;;;;;;5083507;28;20453;-61
2023/10/09 07:06:51;;;;;;;12.63;8.23;;;;;;;;;;5083241;28;20150;-60
2023/10/09 07:09:21;;;;;;;15.68;8.13;;;;;;;;;;5084328;28;20259;-60
2023/10/09 07:17:00;;;;;;;16.20;8.02;;;;;;;;;;5083350;28;20067;-59
2023/10/09 07:22:39;;;;;;;15.10;8.10;;;;;;;;;;5083536;28;20473;-60
2023/10/09 07:30:35;;;;;;;14.30;8.13;;;;;;;;;;5083218;28;20121;-60
2023/10/09 07:32:55;;;;;;;17.52;8.65;;;;;;;;;;5082932;28;20049;-60
2023/10/09 07:38:09;;;;;;;17.08;8.23;;;;;;;;;;5082914;28;20053;-60
2023/10/09 07:40:55;;;;;;;12.15;8.10;;;;;;;;;;5082981;28;20060;-60
2023/10/09 07:48:53;;;;;;;14.48;8.10;;;;;;;;;;5083411;28;20144;-59
2023/10/09 07:51:23;;;;;;;15.40;8.15;;;;;;;;;;5082646;28;20498;-60
2023/10/09 07:53:56;;;;;;;14.88;7.90;;;;;;;;;;5072775;28;20053;-61
2023/10/09 07:56:23;;;;;;;16.58;8.13;;;;;;;;;;5080634;28;20052;-60
2023/10/09 07:58:51;;;;;;;18.00;8.82;;;;;;;;;;5081998;28;20052;-59
2023/10/09 08:01:36;;;;;;;15.27;8.73;;;;;;;;;;5068149;28;20679;-60
2023/10/09 08:04:10;;;;;;;15.10;7.72;;;;;;;;;;5075939;28;20056;-58
2023/10/09 08:06:38;;;;;;;17.23;9.02;;;;;;;;;;5082879;28;20578;-58
2023/10/09 08:17:15;;;;;;;15.25;7.70;;;;;;;;;;5078679;28;20049;-60
2023/10/09 08:19:55;;;;;;;16.38;8.25;;;;;;;;;;5070487;28;20052;-60
2023/10/09 08:24:58;;;;;;;14.98;8.05;;;;;;;;;;5080396;28;20056;-60
2023/10/09 08:33:00;;;;;;;15.82;7.25;;;;;;;;;;5068420;28;20087;-60
2023/10/09 08:35:30;;;;;;;18.27;9.00;;;;;;;;;;5078941;28;20064;-60
2023/10/09 08:38:07;;;;;;;14.23;8.20;;;;;;;;;;5082695;28;20625;-60
2023/10/09 08:40:42;;;;;;;13.38;7.53;;;;;;;;;;5082766;28;20573;-60
2023/10/09 08:43:09;;;;;;;;;;;;;;;;;;5073190;28;20626;-60
2023/10/09 08:45:39;;;;;;;16.55;8.50;;;;;;;;;;5083153;28;45804;-60
2023/10/09 08:48:07;;;;;;;14.02;7.90;;;;;;;;;;5083930;28;20061;-60
2023/10/09 08:50:37;;;;;;;14.43;7.85;;;;;;;;;;5078761;28;20059;-60
2023/10/09 08:53:04;;;;;;;12.55;7.68;;;;;;;;;;5084907;28;20611;-61
2023/10/09 08:55:30;;;;;;;18.02;7.95;;;;;;;;;;5084062;28;20429;-59
2023/10/09 08:57:58;;;;;;;15.10;7.30;;;;;;;;;;5081978;28;20135;-60
2023/10/09 09:00:24;;;;;;;16.60;7.82;;;;;;;;;;5074807;28;20076;-60
2023/10/09 09:02:52;;;;;;;13.27;8.63;;;;;;;;;;5083581;28;20184;-61
2023/10/09 09:05:20;;;;;;;16.25;7.90;;;;;;;;;;5084685;28;20053;-60
2023/10/09 09:07:49;;;;;;;17.60;7.97;;;;;;;;;;5083661;28;20147;-60
2023/10/09 09:10:21;;;;;;;15.75;7.75;;;;;;;;;;5082529;28;20599;-59
2023/10/09 09:12:53;;;;;;;20.73;7.53;;;;;;;;;;5084573;28;20088;-60
2023/10/09 09:15:20;;;;;;;16.27;7.38;;;;;;;;;;5081371;28;20049;-60
2023/10/09 09:17:51;;;;;;;16.70;7.28;;;;;;;;;;5085674;28;20053;-60
2023/10/09 09:20:40;;;;;;;14.82;6.80;;;;;;;;;;5086357;28;20052;-60
2023/10/09 09:23:12;;;;;;;13.40;7.60;;;;;;;;;;5076681;28;20993;-60
2023/10/09 09:25:40;;;;;;;11.50;6.40;;;;;;;;;;5072132;28;20056;-60
2023/10/09 09:28:12;;;;;;;13.25;7.55;;;;;;;;;;5085256;28;20160;-61
2023/10/09 09:30:40;;;;;;;13.07;7.28;;;;;;;;;;5073660;28;20126;-60
2023/10/09 09:36:07;;;;;;;14.48;7.18;;;;;;;;;;5083906;28;20048;-60
2023/10/09 09:38:42;;;;;;;14.15;7.63;;;;;;;;;;5073271;28;20045;-61
2023/10/09 09:41:09;;;;;;;11.05;6.32;;;;;;;;;;5084283;28;20372;-60
2023/10/09 09:43:40;;;;;;;15.63;6.95;;;;;;;;;;5084476;28;20057;-60
2023/10/09 09:46:11;;;;;;;19.50;7.60;;;;;;;;;;5082710;28;20044;-60
2023/10/09 09:48:44;;;;;;;18.48;7.30;;;;;;;;;;5080712;28;20052;-60
2023/10/09 09:51:13;;;;;;;16.55;7.40;;;;;;;;;;5069795;28;20126;-61
2023/10/09 09:53:41;;;;;;;14.43;7.75;;;;;;;;;;5084456;28;20877;-60
2023/10/09 09:56:21;;;;;;;13.85;7.22;;;;;;;;;;5086302;28;20052;-61
2023/10/09 09:58:53;;;;;;;14.75;7.20;;;;;;;;;;5078808;28;20521;-60
2023/10/09 10:01:25;;;;;;;16.15;7.07;;;;;;;;;;5070242;28;20048;-60
2023/10/09 10:03:58;;;;;;;15.35;7.20;;;;;;;;;;5086462;28;20573;-60
2023/10/09 10:06:28;;;;;;;18.08;7.80;;;;;;;;;;5084850;28;20105;-60
2023/10/09 10:08:54;;;;;;;13.88;6.60;;;;;;;;;;5085155;28;20060;-60
2023/10/09 10:11:40;;;;;;;11.77;6.25;;;;;;;;;;5083922;28;20140;-60
2023/10/09 10:14:11;;;;;;;10.13;5.88;;;;;;;;;;5084320;28;20048;-60
2023/10/09 10:16:56;;;;;;;11.48;6.18;;;;;;;;;;5083826;28;20076;-61
2023/10/09 10:19:23;;;;;;;18.02;7.50;;;;;;;;;;5084311;28;20154;-60
2023/10/09 10:21:52;;;;;;;13.73;6.30;;;;;;;;;;5083820;28;20049;-60
2023/10/09 10:25:09;;;;;;;10.55;6.18;;;;;;;;;;5083647;28;20057;-60
2023/10/09 10:27:26;;;;;;;15.48;6.97;;;;;;;;;;5082439;28;20036;-60
2023/10/09 10:30:11;;;;;;;9.68;6.07;;;;;;;;;;5083169;28;20060;-61
2023/10/09 10:33:15;;;;;;;17.33;6.70;;;;;;;;;;5083156;28;20044;-59
2023/10/09 10:38:21;;;;;;;13.65;5.97;;;;;;;;;;5083880;28;20084;-60
2023/10/09 10:40:56;;;;;;;10.90;5.93;;;;;;;;;;5083507;28;20139;-60
2023/10/09 10:43:47;;;;;;;15.02;6.20;;;;;;;;;;5083464;28;20051;-61
2023/10/09 10:49:00;;;;;;;14.25;5.63;;;;;;;;;;5082847;28;20507;-61
2023/10/09 10:51:37;;;;;;;14.32;6.65;;;;;;;;;;5082296;28;20063;-60
2023/10/09 10:56:51;;;;;;;10.23;5.40;;;;;;;;;;5084240;28;20052;-60
2023/10/09 10:59:27;;;;;;;12.50;5.47;;;;;;;;;;5084104;28;20371;-60
2023/10/09 11:15:37;;;;;;;12.93;5.57;;;;;;;;;;5081569;27;20475;-60
2023/10/09 11:18:07;;;;;;;10.15;4.97;;;;;;;;;;5083744;28;20414;-61
2023/10/09 11:20:36;;;;;;;13.93;6.10;;;;;;;;;;5078849;28;20052;-61
2023/10/09 11:25:50;;;;;;;12.80;5.80;;;;;;;;;;5083346;28;20691;-61
2023/10/09 11:28:29;;;;;;;15.02;5.60;;;;;;;;;;5081638;28;20052;-61
2023/10/09 11:31:06;;;;;;;10.27;5.20;;;;;;;;;;5081376;28;20139;-60
2023/10/09 11:33:48;;;;;;;12.77;6.10;;;;;;;;;;5080789;28;20136;-60
2023/10/09 11:36:16;;;;;;;10.63;4.93;;;;;;;;;;5083193;28;20502;-61
2023/10/09 11:38:45;;;;;;;12.32;5.13;;;;;;;;;;5072525;28;20056;-61
2023/10/09 11:41:18;;;;;;;14.90;6.00;;;;;;;;;;5081464;28;20052;-60
2023/10/09 11:43:52;;;;;;;10.10;5.75;;;;;;;;;;5083373;28;20052;-60
2023/10/09 11:46:39;;;;;;;14.93;5.97;;;;;;;;;;5081329;28;20056;-61
2023/10/09 11:54:33;;;;;;;14.05;5.88;;;;;;;;;;5082662;28;20102;-61
2023/10/09 11:57:02;;;;;;;14.05;5.60;;;;;;;;;;5081890;28;20052;-60
2023/10/09 11:59:37;;;;;;;8.98;4.70;;;;;;;;;;5081349;28;20153;-60
2023/10/09 12:02:04;;;;;;;16.33;5.30;;;;;;;;;;5080777;28;20056;-61
2023/10/09 12:04:31;;;;;;;12.38;5.82;;;;;;;;;;5078939;28;20111;-61
2023/10/09 12:07:06;;;;;;;12.00;5.20;;;;;;;;;;5082646;28;20055;-61
2023/10/09 12:09:34;;;;;;;12.00;4.63;;;;;;;;;;5079883;28;20503;-60
2023/10/09 12:12:04;;;;;;;13.40;6.15;;;;;;;;;;5077212;28;20090;-61
2023/10/09 12:14:34;;;;;;;16.33;6.03;;;;;;;;;;5066774;28;20557;-60
2023/10/09 12:17:05;;;;;;;11.40;5.47;;;;;;;;;;5081471;28;20052;-61
2023/10/09 12:19:35;;;;;;;12.55;5.38;;;;;;;;;;5069241;28;20056;-59
2023/10/09 12:22:03;;;;;;;14.48;5.57;;;;;;;;;;5074931;28;20515;-60
2023/10/09 12:24:30;;;;;;;6.97;4.28;;;;;;;;;;5070385;28;20106;-60
2023/10/09 12:26:57;;;;;;;8.43;4.70;;;;;;;;;;5081640;28;20066;-60
2023/10/09 12:29:24;;;;;;;8.55;4.78;;;;;;;;;;5069034;28;20407;-61
2023/10/09 12:31:58;;;;;;;13.07;5.90;;;;;;;;;;5076690;28;20052;-61
2023/10/09 12:34:26;;;;;;;10.63;5.03;;;;;;;;;;5075684;28;20076;-61
2023/10/09 12:36:56;;;;;;;12.15;5.40;;;;;;;;;;5081585;28;20130;-59
2023/10/09 12:39:23;;;;;;;13.90;5.38;;;;;;;;;;5062446;28;20049;-60
2023/10/09 12:41:53;;;;;;;11.02;5.78;;;;;;;;;;5082041;28;20150;-59
2023/10/09 12:44:20;;;;;;;9.77;5.32;;;;;;;;;;5081533;28;20058;-59
2023/10/09 12:46:51;;;;;;;12.02;5.75;;;;;;;;;;5081137;28;20052;-59
2023/10/09 12:49:19;;;;;;;13.48;5.43;;;;;;;;;;5078965;28;20056;-58
2023/10/09 12:51:46;;;;;;;7.28;4.70;;;;;;;;;;5081678;28;20801;-59
2023/10/09 12:54:14;;;;;;;14.88;5.88;;;;;;;;;;5079436;28;20052;-59
2023/10/09 12:56:41;;;;;;;11.32;5.07;;;;;;;;;;5073534;28;20082;-59
2023/10/09 12:59:14;;;;;;;15.20;5.55;;;;;;;;;;5078874;28;20194;-59
2023/10/09 13:01:44;;;;;;;11.35;5.07;;;;;;;;;;5079740;28;20135;-60
2023/10/09 13:04:12;;;;;;;12.43;5.57;;;;;;;;;;5080639;28;20079;-60
2023/10/09 13:06:43;;;;;;;13.70;6.05;;;;;;;;;;5080777;28;20049;-59
2023/10/09 13:09:11;;;;;;;15.75;5.95;;;;;;;;;;5081323;28;20052;-60
2023/10/09 13:11:40;;;;;;;11.57;5.60;;;;;;;;;;5080749;28;20057;-60
2023/10/09 13:14:21;;;;;;;12.68;6.22;;;;;;;;;;5073456;28;20579;-61
2023/10/09 13:16:50;;;;;;;10.32;5.45;;;;;;;;;;5062972;28;20103;-60
2023/10/09 13:19:17;;;;;;;13.07;5.93;;;;;;;;;;5080801;28;20052;-60
2023/10/09 13:21:44;;;;;;;15.15;5.22;;;;;;;;;;5080760;28;20061;-60
2023/10/09 13:24:13;;;;;;;14.95;6.10;;;;;;;;;;5080877;28;20143;-59
2023/10/09 13:26:51;;;;;;;10.00;5.22;;;;;;;;;;5081902;28;20057;-60
2023/10/09 13:29:22;;;;;;;12.63;5.32;;;;;;;;;;5083219;28;20096;-60
2023/10/09 13:31:52;;;;;;;11.45;5.38;;;;;;;;;;5082822;28;20049;-60
2023/10/09 13:34:19;;;;;;;9.98;5.97;;;;;;;;;;5072461;28;20306;-59
2023/10/09 13:36:55;;;;;;;10.25;5.68;;;;;;;;;;5083576;28;20053;-60
2023/10/09 13:41:49;;;;;;;11.65;5.97;;;;;;;;;;5083716;28;20530;-59
2023/10/09 13:44:16;;;;;;;11.95;5.68;;;;;;;;;;5080967;28;20048;-60
2023/10/09 13:46:43;;;;;;;12.07;5.57;;;;;;;;;;5080743;28;20059;-60
2023/10/09 13:49:13;;;;;;;15.35;5.47;;;;;;;;;;5085038;28;20051;-60
2023/10/09 13:51:43;;;;;;;12.07;5.28;;;;;;;;;;5084135;28;20052;-60
2023/10/09 13:54:10;;;;;;;8.75;5.43;;;;;;;;;;5082725;28;20553;-60
2023/10/09 13:56:39;;;;;;;19.70;5.32;;;;;;;;;;5083501;28;20580;-59
2023/10/09 13:59:10;;;;;;;14.10;5.40;;;;;;;;;;5084168;28;21313;-60
2023/10/09 14:01:38;;;;;;;9.73;5.53;;;;;;;;;;5083418;28;20067;-59
2023/10/09 14:04:08;;;;;;;14.15;5.68;;;;;;;;;;5071871;28;20056;-59
2023/10/09 14:06:36;;;;;;;13.50;5.53;;;;;;;;;;5076080;28;20056;-61
2023/10/09 14:09:09;;;;;;;13.00;5.28;;;;;;;;;;5083535;28;20463;-60
2023/10/09 14:11:37;;;;;;;15.32;5.22;;;;;;;;;;5083372;28;20132;-59
2023/10/09 14:14:09;;;;;;;11.90;5.53;;;;;;;;;;5084242;28;20052;-59
2023/10/09 14:16:42;;;;;;;12.38;5.68;;;;;;;;;;5082025;28;20059;-59
2023/10/09 14:19:13;;;;;;;12.95;5.32;;;;;;;;;;5083370;28;20512;-59
2023/10/09 14:21:40;;;;;;;16.42;6.68;;;;;;;;;;5081002;28;20173;-60
2023/10/09 14:24:17;;;;;;;8.95;5.75;;;;;;;;;;5084194;28;20580;-60
2023/10/09 14:26:46;;;;;;;13.45;6.90;;;;;;;;;;5064010;28;20053;-60
2023/10/09 14:29:16;;;;;;;15.70;7.15;;;;;;;;;;5076950;28;20052;-60
2023/10/09 14:31:43;;;;;;;17.08;6.88;;;;;;;;;;5081993;28;20478;-59
2023/10/09 14:34:10;;;;;;;13.85;7.00;;;;;;;;;;5082480;28;20712;-59
2023/10/09 14:36:43;;;;;;;12.77;7.05;;;;;;;;;;5083554;28;20785;-58
2023/10/09 14:39:18;;;;;;;19.83;7.80;;;;;;;;;;5084813;28;20560;-59
2023/10/09 14:41:45;;;;;;;17.98;6.53;;;;;;;;;;5078465;28;20582;-59
2023/10/09 14:44:16;;;;;;;16.50;7.40;;;;;;;;;;5071317;28;20183;-58
2023/10/09 14:46:43;;;;;;;16.50;7.20;;;;;;;;;;5084036;28;20056;-59
2023/10/09 14:49:13;;;;;;;15.65;7.80;;;;;;;;;;5079687;28;20485;-58
2023/10/09 14:51:44;;;;;;;15.68;6.63;;;;;;;;;;5082623;28;20553;-60
2023/10/09 14:54:15;;;;;;;14.70;7.20;;;;;;;;;;5083447;28;20063;-59
2023/10/09 14:56:41;;;;;;;18.67;8.60;;;;;;;;;;5082593;28;20572;-59
2023/10/09 14:59:10;;;;;;;20.67;7.40;;;;;;;;;;5080664;28;20048;-59
2023/10/09 15:01:37;;;;;;;19.58;7.63;;;;;;;;;;5082541;28;20604;-58
2023/10/09 15:04:04;;;;;;;19.58;7.60;;;;;;;;;;5083656;28;20102;-61
2023/10/09 15:06:30;;;;;;;16.75;7.32;;;;;;;;;;5082963;28;20145;-59
2023/10/09 15:08:58;;;;;;;26.70;8.18;;;;;;;;;;5082685;28;20130;-60
2023/10/09 15:11:25;;;;;;;21.90;7.25;;;;;;;;;;5075137;28;20595;-60
2023/10/09 15:13:53;;;;;;;13.60;7.07;;;;;;;;;;5081034;28;20052;-60
2023/10/09 15:16:21;;;;;;;25.80;7.13;;;;;;;;;;5077725;28;20095;-59
2023/10/09 15:18:52;;;;;;;11.02;6.57;;;;;;;;;;5068101;28;20086;-60
2023/10/09 15:21:22;;;;;;;12.02;6.05;;;;;;;;;;5076282;28;20049;-60
2023/10/09 15:23:58;;;;;;;14.95;6.55;;;;;;;;;;5082974;28;20053;-60
2023/10/09 15:26:25;;;;;;;18.60;6.75;;;;;;;;;;5083707;28;20138;-60
2023/10/09 15:28:51;;;;;;;12.07;6.32;;;;;;;;;;5082618;28;20052;-60
2023/10/09 15:31:20;;;;;;;17.73;6.88;;;;;;;;;;5081830;28;20446;-60
2023/10/09 15:33:47;;;;;;;14.90;6.85;;;;;;;;;;5082387;28;20056;-60
2023/10/09 15:36:16;;;;;;;14.70;6.40;;;;;;;;;;5082817;28;20842;-58
2023/10/09 15:38:44;;;;;;;12.07;5.95;;;;;;;;;;5083943;28;20054;-60
2023/10/09 15:41:11;;;;;;;11.40;6.30;;;;;;;;;;5081839;28;20106;-61
2023/10/09 15:43:39;;;;;;;12.05;6.15;;;;;;;;;;5082394;28;20059;-60
2023/10/09 15:46:10;;;;;;;11.50;6.20;;;;;;;;;;5081135;28;20099;-60
2023/10/09 15:48:37;;;;;;;13.07;5.97;;;;;;;;;;5081223;28;20045;-60
2023/10/09 15:51:05;;;;;;;15.27;6.93;;;;;;;;;;5084518;28;20064;-60
2023/10/09 15:53:34;;;;;;;11.73;6.85;;;;;;;;;;5078024;28;20419;-60
2023/10/09 15:56:01;;;;;;;16.00;6.38;;;;;;;;;;5077199;28;20503;-60
2023/10/09 15:58:29;;;;;;;11.30;6.85;;;;;;;;;;5065107;28;20143;-58
2023/10/09 16:00:55;;;;;;;15.32;6.43;;;;;;;;;;5083590;28;20071;-60
2023/10/09 16:03:24;;;;;;;14.45;5.93;;;;;;;;;;5074066;28;20065;-61
2023/10/09 16:05:50;;;;;;;11.88;5.95;;;;;;;;;;5074712;28;20059;-60
2023/10/09 16:08:19;;;;;;;12.95;6.55;;;;;;;;;;5092914;28;20162;-61
2023/10/09 16:10:46;;;;;;;21.65;6.55;;;;;;;;;;5072146;28;20084;-60
2023/10/09 16:13:13;;;;;;;13.27;6.50;;;;;;;;;;5082161;28;20056;-60
2023/10/09 16:15:43;;;;;;;12.38;6.38;;;;;;;;;;5081713;28;20422;-61
2023/10/09 16:18:10;;;;;;;14.40;6.28;;;;;;;;;;5082008;28;21035;-61
2023/10/09 16:20:37;;;;;;;18.05;5.93;;;;;;;;;;5082498;28;20052;-60
2023/10/09 16:23:04;;;;;;;9.82;6.40;;;;;;;;;;5077940;28;20049;-60
2023/10/09 16:25:34;;;;;;;14.45;6.57;;;;;;;;;;5067309;28;20053;-61
2023/10/09 16:28:02;;;;;;;13.50;6.45;;;;;;;;;;5073347;28;20510;-61
2023/10/09 16:30:28;;;;;;;13.13;6.85;;;;;;;;;;5081333;28;20157;-61
2023/10/09 16:32:56;;;;;;;11.23;6.85;;;;;;;;;;5082032;28;20056;-60
2023/10/09 16:35:22;;;;;;;15.30;6.57;;;;;;;;;;5081824;28;20579;-60
2023/10/09 16:37:49;;;;;;;17.90;8.77;;;;;;;;;;5081962;28;20057;-61
2023/10/09 16:40:20;;;;;;;18.90;7.35;;;;;;;;;;5082135;28;20052;-61
2023/10/09 16:42:49;;;;;;;19.02;7.05;;;;;;;;;;5082111;28;20507;-61
2023/10/09 16:45:17;;;;;;;16.10;6.65;;;;;;;;;;5074595;28;20057;-62
2023/10/09 16:47:47;;;;;;;17.42;7.72;;;;;;;;;;5076635;28;20064;-61
2023/10/09 16:50:17;;;;;;;15.27;7.57;;;;;;;;;;5082093;28;20052;-61
2023/10/09 16:52:44;;;;;;;17.90;7.65;;;;;;;;;;5079746;28;20099;-60
2023/10/09 16:55:11;;;;;;;14.20;8.00;;;;;;;;;;5081863;28;20134;-61
2023/10/09 16:57:41;;;;;;;13.48;6.75;;;;;;;;;;5081535;28;20542;-60
2023/10/09 17:00:13;;;;;;;18.15;7.13;;;;;;;;;;5081356;28;20086;-60
2023/10/09 17:02:40;;;;;;;16.85;7.50;;;;;;;;;;5077966;28;20498;-60
2023/10/09 17:05:09;;;;;;;18.40;7.93;;;;;;;;;;5084023;28;20143;-60
2023/10/09 17:07:39;;;;;;;14.15;7.40;;;;;;;;;;5066666;28;20049;-61
2023/10/09 17:10:14;;;;;;;19.25;7.70;;;;;;;;;;5083150;28;20057;-61
2023/10/09 17:12:43;;;;;;;;;;;;;;;;;;5085074;28;20052;-61
2023/10/09 17:15:14;;;;;;;21.33;8.00;;;;;;;;;;5083417;28;44554;-61
2023/10/09 17:17:45;;;;;;;13.75;6.85;;;;;;;;;;5073772;28;20519;-61
2023/10/09 17:20:12;;;;;;;18.00;7.90;;;;;;;;;;5085649;28;20568;-60
2023/10/09 17:22:39;;;;;;;18.52;8.57;;;;;;;;;;5084547;28;20048;-60
2023/10/09 17:25:05;;;;;;;17.60;9.02;;;;;;;;;;5083834;28;20107;-61
2023/10/09 17:27:32;;;;;;;18.80;8.15;;;;;;;;;;5082459;28;20067;-60